createdAt,value
2018-11-29T00:07:27.152Z,2.87
2018-11-29T00:09:56.003Z,3.00
2018-11-29T00:12:24.848Z,2.90
2018-11-29T00:14:53.799Z,3.10
2018-11-29T00:17:22.613Z,3.20
2018-11-29T00:19:51.511Z,2.95
2018-11-29T00:22:20.343Z,2.85
2018-11-29T00:24:49.403Z,3.00
2018-11-29T00:27:18.291Z,3.02
2018-11-29T00:29:47.157Z,3.17
2018-11-29T00:32:16.061Z,3.12
2018-11-29T00:34:44.874Z,2.80
2018-11-29T00:37:13.721Z,3.10
2018-11-29T00:39:42.547Z,3.12
2018-11-29T00:42:11.420Z,3.40
2018-11-29T00:44:40.269Z,2.87
2018-11-29T00:47:09.102Z,3.12
2018-11-29T00:49:37.917Z,2.95
2018-11-29T00:52:06.803Z,3.05
2018-11-29T00:54:35.644Z,2.85
2018-11-29T00:57:04.490Z,3.08
2018-11-29T00:59:33.375Z,2.90
2018-11-29T01:02:02.259Z,2.95
2018-11-29T01:04:31.126Z,2.80
2018-11-29T01:07:00.095Z,3.10
2018-11-29T01:09:29.215Z,3.17
2018-11-29T01:11:58.147Z,3.30
2018-11-29T01:14:27.019Z,3.10
2018-11-29T01:16:55.916Z,3.40
2018-11-29T01:19:25.490Z,2.77
2018-11-29T01:21:54.286Z,3.05
2018-11-29T01:24:23.135Z,2.90
2018-11-29T01:26:51.987Z,2.70
2018-11-29T01:29:20.924Z,3.42
2018-11-29T01:31:49.823Z,2.85
2018-11-29T01:34:18.760Z,3.17
2018-11-29T01:36:47.728Z,2.95
2018-11-29T01:39:16.604Z,2.83
2018-11-29T01:41:45.567Z,2.62
2018-11-29T01:44:14.397Z,2.98
2018-11-29T01:46:43.227Z,2.67
2018-11-29T01:49:12.080Z,2.87
2018-11-29T01:51:40.923Z,3.00
2018-11-29T01:54:09.760Z,2.80
2018-11-29T01:56:38.616Z,2.83
2018-11-29T01:59:07.475Z,3.08
2018-11-29T02:01:36.427Z,3.17
2018-11-29T02:04:05.604Z,2.80
2018-11-29T02:06:34.481Z,2.60
2018-11-29T02:09:03.431Z,2.87
2018-11-29T02:11:32.285Z,2.70
2018-11-29T02:14:01.119Z,2.45
2018-11-29T02:16:29.953Z,2.52
2018-11-29T02:18:58.863Z,2.27
2018-11-29T02:21:27.986Z,2.27
2018-11-29T02:23:57.215Z,2.67
2018-11-29T02:26:26.163Z,2.25
2018-11-29T02:28:55.133Z,2.70
2018-11-29T02:31:24.733Z,2.55
2018-11-29T02:33:53.709Z,2.50
2018-11-29T02:36:22.563Z,2.90
2018-11-29T02:38:51.397Z,2.95
2018-11-29T02:41:20.330Z,2.62
2018-11-29T02:43:49.190Z,2.83
2018-11-29T02:46:18.026Z,2.50
2018-11-29T02:48:46.953Z,3.08
2018-11-29T02:51:15.887Z,2.52
2018-11-29T02:53:44.740Z,2.55
2018-11-29T02:56:13.588Z,2.62
2018-11-29T02:58:42.415Z,2.70
2018-11-29T03:01:11.234Z,3.20
2018-11-29T03:03:40.071Z,2.65
2018-11-29T03:06:09.222Z,2.70
2018-11-29T03:08:38.111Z,2.60
2018-11-29T03:11:07.042Z,2.47
2018-11-29T03:13:35.979Z,2.55
2018-11-29T03:16:04.865Z,2.85
2018-11-29T03:18:33.819Z,3.00
2018-11-29T03:21:02.667Z,2.80
2018-11-29T03:23:31.510Z,2.58
2018-11-29T03:26:00.359Z,2.80
2018-11-29T03:28:29.592Z,2.55
2018-11-29T03:30:58.429Z,2.40
2018-11-29T03:33:27.304Z,2.98
2018-11-29T03:35:56.201Z,2.55
2018-11-29T03:38:25.052Z,2.58
2018-11-29T03:40:54.004Z,2.45
2018-11-29T03:43:22.849Z,2.65
2018-11-29T03:45:51.742Z,2.40
2018-11-29T03:48:20.608Z,2.33
2018-11-29T03:50:49.440Z,2.52
2018-11-29T03:53:18.276Z,2.25
2018-11-29T03:55:47.135Z,2.15
2018-11-29T03:58:16.422Z,2.10
2018-11-29T04:00:45.358Z,2.20
2018-11-29T04:03:14.854Z,2.05
2018-11-29T04:05:43.678Z,2.20
2018-11-29T04:08:12.711Z,2.10
2018-11-29T04:10:41.751Z,2.40
2018-11-29T04:13:10.795Z,2.30
2018-11-29T04:15:39.761Z,2.30
2018-11-29T04:18:08.619Z,2.50
2018-11-29T04:20:37.483Z,2.42
2018-11-29T04:23:06.569Z,2.22
2018-11-29T04:25:35.478Z,2.55
2018-11-29T04:28:04.347Z,2.80
2018-11-29T04:30:33.296Z,2.98
2018-11-29T04:33:02.142Z,3.15
2018-11-29T04:35:31.022Z,3.02
2018-11-29T04:37:59.916Z,2.72
2018-11-29T04:40:28.744Z,3.98
2018-11-29T04:42:57.668Z,3.65
2018-11-29T04:45:30.890Z,3.35
2018-11-29T04:47:59.740Z,3.27
2018-11-29T04:50:28.623Z,3.47
2018-11-29T04:52:57.466Z,3.17
2018-11-29T04:55:26.327Z,3.58
2018-11-29T04:57:55.239Z,4.08
2018-11-29T05:00:24.124Z,3.42
2018-11-29T05:02:52.996Z,3.08
2018-11-29T05:05:21.835Z,3.10
2018-11-29T05:07:50.675Z,4.37
2018-11-29T05:10:19.588Z,3.72
2018-11-29T05:12:48.487Z,3.40
2018-11-29T05:15:17.466Z,3.25
2018-11-29T05:17:46.395Z,3.45
2018-11-29T05:20:15.244Z,3.22
2018-11-29T05:22:44.098Z,3.72
2018-11-29T05:25:12.995Z,3.55
2018-11-29T05:27:41.839Z,3.50
2018-11-29T05:30:12.376Z,3.40
2018-11-29T05:32:41.298Z,4.03
2018-11-29T05:35:11.318Z,3.90
2018-11-29T05:37:40.253Z,3.30
2018-11-29T05:40:16.672Z,3.92
2018-11-29T05:42:45.666Z,3.90
2018-11-29T05:45:14.555Z,4.37
2018-11-29T05:47:43.448Z,4.12
2018-11-29T05:50:12.796Z,3.92
2018-11-29T05:52:41.992Z,4.75
2018-11-29T05:55:12.721Z,4.15
2018-11-29T05:57:41.558Z,4.58
2018-11-29T06:00:13.114Z,4.85
2018-11-29T06:02:42.029Z,4.90
2018-11-29T06:05:12.104Z,5.12
2018-11-29T06:07:40.997Z,5.75
2018-11-29T06:10:09.874Z,5.67
2018-11-29T06:12:38.856Z,4.95
2018-11-29T06:15:09.701Z,4.62
2018-11-29T06:17:38.629Z,5.17
2018-11-29T06:20:10.178Z,5.05
2018-11-29T06:22:39.061Z,5.05
2018-11-29T06:25:07.975Z,5.97
2018-11-29T06:27:36.856Z,6.28
2018-11-29T06:30:11.583Z,6.55
2018-11-29T06:32:40.410Z,6.25
2018-11-29T06:35:09.332Z,6.50
2018-11-29T06:37:38.250Z,6.10
2018-11-29T06:40:11.015Z,7.15
2018-11-29T06:42:39.900Z,7.17
2018-11-29T06:45:13.830Z,6.72
2018-11-29T06:47:42.728Z,6.10
2018-11-29T06:50:13.471Z,6.67
2018-11-29T06:52:43.501Z,6.62
2018-11-29T06:59:52.063Z,6.75
2018-11-29T07:02:20.933Z,6.97
2018-11-29T07:04:50.242Z,6.58
2018-11-29T07:07:19.155Z,6.75
2018-11-29T07:09:47.995Z,6.97
2018-11-29T07:12:17.087Z,6.22
2018-11-29T07:14:46.378Z,5.97
2018-11-29T07:17:15.651Z,6.90
2018-11-29T07:19:44.767Z,6.72
2018-11-29T07:22:13.710Z,6.85
2018-11-29T07:24:42.614Z,7.35
2018-11-29T07:27:11.480Z,6.45
2018-11-29T07:29:40.358Z,6.72
2018-11-29T07:32:11.656Z,6.40
2018-11-29T07:34:40.579Z,6.78
2018-11-29T07:37:09.453Z,5.83
2018-11-29T07:39:38.478Z,5.67
2018-11-29T07:42:07.587Z,6.50
2018-11-29T07:44:36.568Z,6.25
2018-11-29T07:47:05.479Z,6.17
2018-11-29T07:49:34.326Z,6.22
2018-11-29T07:52:03.267Z,6.47
2018-11-29T07:54:32.147Z,6.70
2018-11-29T07:57:01.051Z,6.92
2018-11-29T07:59:29.909Z,7.45
2018-11-29T08:01:58.785Z,6.30
2018-11-29T08:04:27.648Z,6.25
2018-11-29T08:06:56.552Z,6.25
2018-11-29T08:09:25.400Z,6.28
2018-11-29T08:11:54.328Z,7.00
2018-11-29T08:14:23.241Z,6.92
2018-11-29T08:16:52.059Z,6.33
2018-11-29T08:19:20.908Z,5.65
2018-11-29T08:21:55.973Z,5.75
2018-11-29T08:24:24.997Z,5.92
2018-11-29T08:26:53.826Z,5.87
2018-11-29T08:29:22.740Z,5.83
2018-11-29T08:31:51.628Z,6.92
2018-11-29T08:34:20.776Z,6.28
2018-11-29T08:36:49.621Z,6.20
2018-11-29T08:39:19.125Z,6.42
2018-11-29T08:41:47.990Z,6.05
2018-11-29T08:44:16.860Z,6.45
2018-11-29T08:46:45.704Z,6.67
2018-11-29T08:49:14.547Z,7.03
2018-11-29T08:51:43.374Z,6.08
2018-11-29T08:54:12.230Z,5.70
2018-11-29T08:56:41.093Z,5.40
2018-11-29T08:59:09.920Z,5.75
2018-11-29T09:01:38.755Z,6.20
2018-11-29T09:04:07.733Z,6.08
2018-11-29T09:06:36.567Z,5.80
2018-11-29T09:09:07.272Z,5.90
2018-11-29T09:11:36.124Z,6.00
2018-11-29T09:14:04.986Z,6.35
2018-11-29T09:16:34.033Z,6.03
2018-11-29T09:19:02.899Z,6.47
2018-11-29T09:21:31.792Z,6.45
2018-11-29T09:24:00.653Z,7.28
2018-11-29T09:26:29.537Z,6.50
2018-11-29T09:28:58.415Z,6.65
2018-11-29T09:31:27.287Z,6.97
2018-11-29T09:33:56.134Z,6.95
2018-11-29T09:36:25.021Z,7.83
2018-11-29T09:38:53.989Z,7.40
2018-11-29T09:41:22.877Z,7.22
2018-11-29T09:43:51.770Z,6.95
2018-11-29T09:46:20.640Z,6.95
2018-11-29T09:48:49.548Z,9.35
2018-11-29T09:51:18.379Z,7.95
2018-11-29T09:53:47.229Z,7.65
2018-11-29T09:56:16.070Z,6.80
2018-11-29T09:58:45.057Z,6.25
2018-11-29T10:01:13.869Z,6.85
2018-11-29T10:03:42.728Z,6.90
2018-11-29T10:06:11.614Z,7.12
2018-11-29T10:08:40.467Z,7.00
2018-11-29T10:11:09.299Z,7.00
2018-11-29T10:13:38.164Z,6.25
2018-11-29T10:16:07.072Z,5.92
2018-11-29T10:18:35.939Z,6.90
2018-11-29T10:21:04.807Z,6.65
2018-11-29T10:23:33.684Z,6.40
2018-11-29T10:26:02.564Z,6.33
2018-11-29T10:28:31.487Z,6.60
2018-11-29T10:31:01.787Z,6.97
2018-11-29T10:33:30.718Z,6.85
2018-11-29T10:35:59.609Z,7.25
2018-11-29T10:38:28.454Z,6.55
2018-11-29T10:40:57.359Z,7.47
2018-11-29T10:43:26.258Z,7.95
2018-11-29T10:45:55.149Z,8.55
2018-11-29T10:48:24.839Z,7.85
2018-11-29T10:50:53.731Z,7.53
2018-11-29T10:53:22.580Z,7.50
2018-11-29T10:55:51.456Z,6.72
2018-11-29T10:58:20.285Z,7.62
2018-11-29T11:00:54.309Z,8.18
2018-11-29T11:03:23.179Z,7.40
2018-11-29T11:05:53.098Z,9.28
2018-11-29T11:08:22.171Z,8.83
2018-11-29T11:10:51.083Z,8.13
2018-11-29T11:13:19.972Z,9.58
2018-11-29T11:15:48.848Z,8.85
2018-11-29T11:18:18.152Z,8.33
2018-11-29T11:20:47.002Z,8.55
2018-11-29T11:23:15.848Z,7.40
2018-11-29T11:25:44.809Z,7.87
2018-11-29T11:28:20.275Z,7.45
2018-11-29T11:30:49.155Z,7.80
2018-11-29T11:33:18.051Z,8.30
2018-11-29T11:35:46.923Z,7.47
2018-11-29T11:38:15.860Z,7.85
2018-11-29T11:40:44.812Z,8.00
2018-11-29T11:43:13.673Z,7.45
2018-11-29T11:45:42.579Z,8.78
2018-11-29T11:48:11.451Z,8.13
2018-11-29T11:50:40.341Z,8.95
2018-11-29T11:53:09.834Z,8.73
2018-11-29T11:55:38.915Z,9.03
2018-11-29T11:58:08.523Z,8.50
2018-11-29T12:00:37.851Z,9.45
2018-11-29T12:03:10.414Z,10.50
2018-11-29T12:05:39.314Z,9.60
2018-11-29T12:08:08.397Z,9.98
2018-11-29T12:10:37.929Z,9.83
2018-11-29T12:13:07.850Z,10.38
2018-11-29T12:15:37.732Z,9.70
2018-11-29T12:18:08.322Z,10.00
2018-11-29T12:20:37.155Z,9.53
2018-11-29T12:23:06.567Z,8.68
2018-11-29T12:25:35.411Z,9.45
2018-11-29T12:28:04.345Z,9.38
2018-11-29T12:30:34.999Z,9.40
2018-11-29T12:33:05.104Z,8.93
2018-11-29T12:35:34.093Z,8.98
2018-11-29T12:38:02.965Z,9.73
2018-11-29T12:40:31.879Z,9.80
2018-11-29T12:43:00.770Z,9.53
2018-11-29T12:45:29.620Z,9.65
2018-11-29T12:47:58.467Z,8.90
2018-11-29T12:50:27.845Z,9.18
2018-11-29T12:52:56.679Z,8.65
2018-11-29T12:55:26.668Z,9.75
2018-11-29T12:58:05.101Z,10.25
2018-11-29T13:00:25.412Z,9.60
2018-11-29T13:02:56.342Z,10.25
2018-11-29T13:05:25.604Z,10.10
2018-11-29T13:07:54.564Z,10.28
2018-11-29T13:10:24.512Z,9.73
2018-11-29T13:12:53.644Z,10.15
2018-11-29T13:15:28.709Z,10.05
2018-11-29T13:17:58.667Z,8.83
2018-11-29T13:20:32.383Z,8.85
2018-11-29T13:22:56.446Z,11.30
2018-11-29T13:25:26.571Z,10.48
2018-11-29T13:27:55.476Z,10.55
2018-11-29T13:30:24.510Z,9.43
2018-11-29T13:32:54.732Z,10.00
2018-11-29T13:35:29.067Z,10.03
2018-11-29T13:38:02.123Z,10.65
2018-11-29T13:40:31.823Z,8.83
2018-11-29T13:43:00.705Z,9.38
2018-11-29T13:45:29.647Z,9.98
2018-11-29T13:47:58.537Z,8.75
2018-11-29T13:50:27.420Z,9.98
2018-11-29T13:52:56.512Z,9.50
2018-11-29T13:55:25.655Z,10.32
2018-11-29T13:57:54.838Z,10.68
2018-11-29T14:00:24.720Z,10.43
2018-11-29T14:02:59.084Z,10.30
2018-11-29T14:05:28.186Z,11.03
2018-11-29T14:07:57.371Z,10.03
2018-11-29T14:10:26.530Z,10.03
2018-11-29T14:12:56.283Z,9.95
2018-11-29T14:15:32.513Z,10.82
2018-11-29T14:18:01.835Z,11.48
2018-11-29T14:20:30.957Z,11.10
2018-11-29T14:23:00.068Z,10.70
2018-11-29T14:25:29.210Z,10.50
2018-11-29T14:27:58.756Z,11.38
2018-11-29T14:30:29.026Z,11.90
2018-11-29T14:32:59.413Z,10.95
2018-11-29T14:35:28.597Z,11.65
2018-11-29T14:37:57.730Z,12.15
2018-11-29T14:40:28.134Z,13.35
2018-11-29T14:42:57.259Z,13.90
2018-11-29T14:45:27.322Z,14.15
2018-11-29T14:47:56.840Z,13.08
2018-11-29T14:50:38.878Z,14.23
2018-11-29T14:53:09.106Z,14.98
2018-11-29T14:55:38.751Z,15.18
2018-11-29T14:58:12.055Z,15.53
2018-11-29T15:00:41.213Z,14.13
2018-11-29T15:03:15.496Z,13.22
2018-11-29T15:05:45.112Z,12.58
2018-11-29T15:08:14.274Z,13.75
2018-11-29T15:10:43.370Z,14.25
2018-11-29T15:13:13.039Z,14.85
2018-11-29T15:15:43.007Z,15.35
2018-11-29T15:18:12.536Z,14.23
2018-11-29T15:20:46.867Z,15.10
2018-11-29T15:23:17.377Z,14.20
2018-11-29T15:25:46.488Z,13.80
2018-11-29T15:28:15.606Z,13.22
2018-11-29T15:30:44.854Z,12.68
2018-11-29T15:33:14.127Z,13.32
2018-11-29T15:35:43.230Z,14.95
2018-11-29T15:38:12.358Z,15.85
2018-11-29T15:40:41.500Z,15.78
2018-11-29T15:43:10.589Z,14.33
2018-11-29T15:45:39.697Z,15.70
2018-11-29T15:48:08.783Z,15.55
2018-11-29T15:50:37.891Z,16.62
2018-11-29T15:53:07.837Z,16.12
2018-11-29T15:55:37.281Z,14.73
2018-11-29T15:58:06.769Z,13.93
2018-11-29T16:00:36.000Z,15.05
2018-11-29T16:03:07.998Z,13.70
2018-11-29T16:05:37.155Z,13.13
2018-11-29T16:08:07.112Z,12.47
2018-11-29T16:10:36.559Z,12.13
2018-11-29T16:13:06.868Z,11.80
2018-11-29T16:15:36.317Z,12.28
2018-11-29T16:18:05.513Z,15.10
2018-11-29T16:20:36.243Z,13.22
2018-11-29T16:23:05.993Z,12.70
2018-11-29T16:25:35.161Z,13.53
2018-11-29T16:28:05.202Z,13.32
2018-11-29T16:30:39.208Z,14.40
2018-11-29T16:33:10.953Z,12.98
2018-11-29T16:35:40.136Z,13.85
2018-11-29T16:38:09.237Z,13.50
2018-11-29T16:40:38.358Z,13.15
2018-11-29T16:43:08.249Z,13.28
2018-11-29T16:45:37.581Z,13.40
2018-11-29T16:48:07.136Z,14.55
2018-11-29T16:50:36.841Z,16.17
2018-11-29T16:53:06.773Z,14.95
2018-11-29T16:55:36.000Z,14.63
2018-11-29T16:58:09.211Z,15.15
2018-11-29T17:00:38.324Z,14.28
2018-11-29T17:03:07.544Z,14.15
2018-11-29T17:05:36.854Z,14.95
2018-11-29T17:08:06.794Z,13.48
2018-11-29T17:10:36.094Z,15.18
2018-11-29T17:13:10.999Z,13.30
2018-11-29T17:15:40.092Z,13.55
2018-11-29T17:18:09.205Z,13.30
2018-11-29T17:20:38.386Z,13.88
2018-11-29T17:23:09.084Z,14.47
2018-11-29T17:25:38.338Z,12.47
2018-11-29T17:28:08.115Z,13.88
2018-11-29T17:30:37.934Z,12.23
2018-11-29T17:33:08.334Z,13.60
2018-11-29T17:35:37.559Z,12.85
2018-11-29T17:38:07.038Z,11.85
2018-11-29T17:40:37.143Z,12.05
2018-11-29T17:43:06.953Z,10.58
2018-11-29T17:45:36.143Z,11.97
2018-11-29T17:48:10.088Z,11.63
2018-11-29T17:50:41.513Z,11.85
2018-11-29T17:53:11.396Z,12.00
2018-11-29T17:55:40.760Z,11.00
2018-11-29T17:58:12.470Z,10.08
2018-11-29T18:00:41.918Z,9.30
2018-11-29T18:03:11.030Z,8.75
2018-11-29T18:05:40.157Z,8.18
2018-11-29T18:08:09.269Z,10.25
2018-11-29T18:10:40.156Z,9.48
2018-11-29T18:13:15.186Z,9.40
2018-11-29T18:15:44.412Z,9.58
2018-11-29T18:18:14.680Z,9.70
2018-11-29T18:20:42.952Z,9.53
2018-11-29T18:23:12.952Z,10.00
2018-11-29T18:25:42.109Z,9.73
2018-11-29T18:28:12.055Z,8.95
2018-11-29T18:30:41.155Z,9.35
2018-11-29T18:33:10.301Z,10.20
2018-11-29T18:35:39.451Z,9.45
2018-11-29T18:38:09.372Z,10.43
2018-11-29T18:40:38.518Z,10.00
2018-11-29T18:43:09.391Z,10.95
2018-11-29T18:45:38.645Z,10.05
2018-11-29T18:48:08.193Z,10.10
2018-11-29T18:50:37.531Z,8.65
2018-11-29T18:53:07.377Z,8.73
2018-11-29T18:55:36.572Z,8.40
2018-11-29T18:58:06.258Z,8.90
2018-11-29T19:00:36.481Z,8.38
2018-11-29T19:03:06.048Z,9.08
2018-11-29T19:05:35.538Z,8.55
2018-11-29T19:08:04.568Z,7.78
2018-11-29T19:10:33.821Z,8.90
2018-11-29T19:13:09.164Z,8.15
2018-11-29T19:15:38.266Z,8.55
2018-11-29T19:18:10.504Z,8.08
2018-11-29T19:20:37.315Z,7.87
2018-11-29T19:23:06.760Z,8.10
2018-11-29T19:25:36.183Z,7.47
2018-11-29T19:28:05.864Z,7.12
2018-11-29T19:30:35.472Z,7.40
2018-11-29T19:33:17.489Z,7.65
2018-11-29T19:35:47.403Z,7.12
2018-11-29T19:38:16.646Z,7.92
2018-11-29T19:40:45.945Z,9.05
2018-11-29T19:43:15.055Z,8.60
2018-11-29T19:45:44.213Z,7.70
2018-11-29T19:48:13.690Z,8.38
2018-11-29T19:50:42.843Z,8.70
2018-11-29T19:53:19.011Z,9.03
2018-11-29T19:55:49.007Z,7.30
2018-11-29T19:58:18.145Z,7.90
2018-11-29T20:00:47.831Z,7.37
2018-11-29T20:03:16.874Z,9.05
2018-11-29T20:05:47.021Z,8.15
2018-11-29T20:08:16.151Z,7.58
2018-11-29T20:10:45.297Z,7.17
2018-11-29T20:13:15.471Z,7.58
2018-11-29T20:15:47.260Z,7.53
2018-11-29T20:18:16.474Z,8.08
2018-11-29T20:20:45.681Z,7.58
2018-11-29T20:23:14.848Z,8.03
2018-11-29T20:25:45.309Z,7.90
2018-11-29T20:28:14.469Z,8.45
2018-11-29T20:30:43.668Z,7.72
2018-11-29T20:33:13.177Z,7.62
2018-11-29T20:35:42.596Z,7.80
2018-11-29T20:38:11.750Z,7.00
2018-11-29T20:40:42.489Z,6.90
2018-11-29T20:43:11.598Z,6.75
2018-11-29T20:45:50.765Z,7.65
2018-11-29T20:48:22.102Z,7.12
2018-11-29T20:50:51.966Z,7.83
2018-11-29T20:53:24.198Z,8.05
2018-11-29T20:55:53.417Z,7.65
2018-11-29T20:58:22.487Z,6.87
2018-11-29T21:00:51.573Z,7.65
2018-11-29T21:03:20.695Z,7.80
2018-11-29T21:05:49.787Z,7.53
2018-11-29T21:08:18.889Z,7.70
2018-11-29T21:10:48.080Z,7.62
2018-11-29T21:13:17.227Z,7.70
2018-11-29T21:15:46.479Z,8.50
2018-11-29T21:18:16.292Z,7.78
2018-11-29T21:20:45.497Z,7.53
2018-11-29T21:29:09.426Z,7.75
2018-11-29T21:31:41.426Z,7.35
2018-11-29T21:34:10.510Z,7.65
2018-11-29T21:36:39.595Z,8.53
2018-11-29T21:39:08.778Z,7.72
2018-11-29T21:41:37.844Z,6.70
2018-11-29T21:46:00.669Z,6.37
2018-11-29T21:48:30.453Z,5.97
2018-11-29T21:51:00.195Z,6.90
2018-11-29T21:53:29.959Z,6.72
2018-11-29T21:55:59.943Z,7.35
2018-11-29T21:58:29.768Z,6.70
2018-11-29T22:00:59.608Z,6.97
2018-11-29T22:03:29.361Z,7.12
2018-11-29T22:05:59.149Z,6.10
2018-11-29T22:08:28.888Z,5.95
2018-11-29T22:10:58.616Z,6.70
2018-11-29T22:13:28.411Z,6.28
2018-11-29T22:15:58.161Z,7.12
2018-11-29T22:18:27.962Z,6.85
2018-11-29T22:20:59.956Z,6.95
2018-11-29T22:23:29.992Z,6.83
2018-11-29T22:26:00.895Z,7.03
2018-11-29T22:28:31.191Z,6.67
2018-11-29T22:31:01.069Z,6.95
2018-11-29T22:33:30.834Z,6.37
2018-11-29T22:36:00.636Z,6.33
2018-11-29T22:38:30.528Z,6.50
2018-11-29T22:41:00.285Z,6.75
2018-11-29T22:43:30.189Z,6.08
2018-11-29T22:46:00.073Z,7.05
2018-11-29T22:48:29.899Z,6.72
2018-11-29T22:50:59.662Z,6.33
2018-11-29T22:53:29.461Z,5.72
2018-11-29T22:55:59.366Z,5.65
2018-11-29T22:58:29.109Z,6.25
2018-11-29T23:00:58.865Z,5.55
2018-11-29T23:03:28.642Z,7.22
2018-11-29T23:05:58.397Z,5.90
2018-11-29T23:08:28.104Z,6.10
2018-11-29T23:10:57.964Z,5.60
2018-11-29T23:13:27.758Z,6.55
2018-11-29T23:15:57.545Z,7.22
2018-11-29T23:18:27.302Z,5.75
2018-11-29T23:20:57.083Z,6.50
2018-11-29T23:23:26.808Z,6.50
2018-11-29T23:25:56.577Z,6.95
2018-11-29T23:28:26.333Z,6.42
2018-11-29T23:30:56.042Z,6.75
2018-11-29T23:33:25.875Z,5.47
2018-11-29T23:35:55.616Z,6.28
2018-11-29T23:38:25.441Z,6.00
2018-11-29T23:40:55.277Z,6.30
2018-11-29T23:43:25.008Z,6.80
2018-11-29T23:45:54.739Z,5.60
2018-11-29T23:48:24.469Z,5.85
2018-11-29T23:50:54.209Z,6.30
2018-11-29T23:53:23.954Z,6.20
2018-11-29T23:55:54.169Z,5.90
2018-11-29T23:58:23.903Z,5.97
